< < Back
Terminal Aerodrome Forecast


Current Version              Previous Versions:   1  2  3  4  5  6  7  8  9  

Terminal Aerodrome Forecast

134
FTUS44 KMRX 270520
TAFCHA
TAF
KCHA 270520Z 2706/2806 36003KT P6SM SCT250
     FM271000 00000KT 6SM BR SCT250
     FM271400 36008KT P6SM SCT050
     FM280100 03003KT P6SM BKN250=



Latest METAR

219
SAUS80 KWBC 272200 RRA
MTRCHA
METAR KCHA 272153Z 03009G16KT 10SM FEW250 BKN300 20/02 A2989 RMK AO2
SLP119 T02000022


USA.gov is the U.S. government's official web portal to all federal, state and local government web resources and services.